sensor_id;sensor_type;location;lat;lon;timestamp;P1;durP1;ratioP1;P2;durP2;ratioP2
60006;SDS011;45863;50.336;3.536;2022-07-29T00:02:23;8.23;;;2.92;;
60006;SDS011;45863;50.336;3.536;2022-07-29T00:04:48;12.97;;;3.27;;
60006;SDS011;45863;50.336;3.536;2022-07-29T00:07:14;10.52;;;3.17;;
60006;SDS011;45863;50.336;3.536;2022-07-29T00:09:39;13.05;;;3.33;;
60006;SDS011;45863;50.336;3.536;2022-07-29T00:12:04;8.38;;;3.17;;
60006;SDS011;45863;50.336;3.536;2022-07-29T00:14:29;13.23;;;3.38;;
60006;SDS011;45863;50.336;3.536;2022-07-29T00:16:55;10.30;;;3.08;;
60006;SDS011;45863;50.336;3.536;2022-07-29T00:19:20;7.40;;;3.13;;
60006;SDS011;45863;50.336;3.536;2022-07-29T00:21:45;8.23;;;3.37;;
60006;SDS011;45863;50.336;3.536;2022-07-29T00:24:10;11.13;;;4.13;;
60006;SDS011;45863;50.336;3.536;2022-07-29T00:26:36;10.27;;;4.10;;
60006;SDS011;45863;50.336;3.536;2022-07-29T00:29:02;10.45;;;3.60;;
60006;SDS011;45863;50.336;3.536;2022-07-29T00:31:27;9.23;;;3.65;;
60006;SDS011;45863;50.336;3.536;2022-07-29T00:33:52;9.60;;;3.50;;
60006;SDS011;45863;50.336;3.536;2022-07-29T00:36:18;9.05;;;3.25;;
60006;SDS011;45863;50.336;3.536;2022-07-29T00:38:43;11.70;;;3.45;;
60006;SDS011;45863;50.336;3.536;2022-07-29T00:41:10;10.05;;;3.13;;
60006;SDS011;45863;50.336;3.536;2022-07-29T00:43:35;11.70;;;3.60;;
60006;SDS011;45863;50.336;3.536;2022-07-29T00:46:01;10.00;;;3.85;;
60006;SDS011;45863;50.336;3.536;2022-07-29T00:48:26;13.20;;;3.47;;
60006;SDS011;45863;50.336;3.536;2022-07-29T00:50:51;13.40;;;2.90;;
60006;SDS011;45863;50.336;3.536;2022-07-29T00:53:17;9.10;;;2.85;;
60006;SDS011;45863;50.336;3.536;2022-07-29T00:55:42;10.20;;;3.10;;
60006;SDS011;45863;50.336;3.536;2022-07-29T00:58:07;10.75;;;3.40;;
60006;SDS011;45863;50.336;3.536;2022-07-29T01:00:33;10.63;;;3.25;;
60006;SDS011;45863;50.336;3.536;2022-07-29T01:02:58;6.93;;;2.97;;
60006;SDS011;45863;50.336;3.536;2022-07-29T01:05:24;8.40;;;2.80;;
60006;SDS011;45863;50.336;3.536;2022-07-29T01:07:52;8.20;;;3.45;;
60006;SDS011;45863;50.336;3.536;2022-07-29T01:10:18;9.23;;;2.90;;
60006;SDS011;45863;50.336;3.536;2022-07-29T01:12:44;7.22;;;3.22;;
60006;SDS011;45863;50.336;3.536;2022-07-29T01:15:11;11.30;;;3.42;;
60006;SDS011;45863;50.336;3.536;2022-07-29T01:22:47;10.80;;;2.70;;
60006;SDS011;45863;50.336;3.536;2022-07-29T01:25:30;10.48;;;3.47;;
60006;SDS011;45863;50.336;3.536;2022-07-29T01:30:28;9.32;;;3.20;;
60006;SDS011;45863;50.336;3.536;2022-07-29T01:32:56;19.20;;;3.40;;
60006;SDS011;45863;50.336;3.536;2022-07-29T01:35:33;10.75;;;2.65;;
60006;SDS011;45863;50.336;3.536;2022-07-29T01:38:06;11.75;;;2.60;;
60006;SDS011;45863;50.336;3.536;2022-07-29T01:40:40;8.73;;;2.85;;
60006;SDS011;45863;50.336;3.536;2022-07-29T01:43:11;10.23;;;3.10;;
60006;SDS011;45863;50.336;3.536;2022-07-29T01:48:05;11.98;;;2.78;;
60006;SDS011;45863;50.336;3.536;2022-07-29T01:50:34;8.30;;;2.80;;
60006;SDS011;45863;50.336;3.536;2022-07-29T01:53:01;9.52;;;3.13;;
60006;SDS011;45863;50.336;3.536;2022-07-29T01:55:28;8.55;;;3.30;;
60006;SDS011;45863;50.336;3.536;2022-07-29T01:57:54;11.55;;;3.58;;
60006;SDS011;45863;50.336;3.536;2022-07-29T02:00:21;11.50;;;3.97;;
60006;SDS011;45863;50.336;3.536;2022-07-29T02:02:47;6.28;;;3.00;;
60006;SDS011;45863;50.336;3.536;2022-07-29T02:05:14;11.40;;;3.10;;
60006;SDS011;45863;50.336;3.536;2022-07-29T02:07:40;11.63;;;3.55;;
60006;SDS011;45863;50.336;3.536;2022-07-29T02:10:07;8.05;;;3.15;;
60006;SDS011;45863;50.336;3.536;2022-07-29T02:12:32;9.07;;;3.55;;
60006;SDS011;45863;50.336;3.536;2022-07-29T02:14:59;9.90;;;3.25;;
60006;SDS011;45863;50.336;3.536;2022-07-29T02:17:29;8.43;;;3.10;;
60006;SDS011;45863;50.336;3.536;2022-07-29T02:19:57;7.83;;;2.83;;
60006;SDS011;45863;50.336;3.536;2022-07-29T02:22:23;9.27;;;3.17;;
60006;SDS011;45863;50.336;3.536;2022-07-29T02:24:49;7.47;;;3.20;;
60006;SDS011;45863;50.336;3.536;2022-07-29T02:27:15;9.38;;;3.20;;
60006;SDS011;45863;50.336;3.536;2022-07-29T02:29:42;10.40;;;3.75;;
60006;SDS011;45863;50.336;3.536;2022-07-29T02:32:08;14.05;;;3.78;;
60006;SDS011;45863;50.336;3.536;2022-07-29T02:34:35;10.32;;;3.78;;
60006;SDS011;45863;50.336;3.536;2022-07-29T02:37:00;9.02;;;3.25;;
60006;SDS011;45863;50.336;3.536;2022-07-29T02:39:26;9.18;;;3.63;;
60006;SDS011;45863;50.336;3.536;2022-07-29T02:42:26;7.55;;;3.75;;
60006;SDS011;45863;50.336;3.536;2022-07-29T02:44:45;11.57;;;3.58;;
60006;SDS011;45863;50.336;3.536;2022-07-29T02:47:12;8.77;;;3.00;;
60006;SDS011;45863;50.336;3.536;2022-07-29T02:49:41;9.60;;;3.45;;
60006;SDS011;45863;50.336;3.536;2022-07-29T02:54:41;12.73;;;2.77;;
60006;SDS011;45863;50.336;3.536;2022-07-29T03:00:04;5.65;;;2.88;;
60006;SDS011;45863;50.336;3.536;2022-07-29T03:02:31;7.43;;;2.92;;
60006;SDS011;45863;50.336;3.536;2022-07-29T03:04:58;8.38;;;3.47;;
60006;SDS011;45863;50.336;3.536;2022-07-29T03:07:23;10.13;;;3.65;;
60006;SDS011;45863;50.336;3.536;2022-07-29T03:09:49;10.90;;;3.60;;
60006;SDS011;45863;50.336;3.536;2022-07-29T03:12:14;7.45;;;3.35;;
60006;SDS011;45863;50.336;3.536;2022-07-29T03:14:40;8.93;;;3.50;;
60006;SDS011;45863;50.336;3.536;2022-07-29T03:17:06;8.10;;;3.60;;
60006;SDS011;45863;50.336;3.536;2022-07-29T03:19:32;8.63;;;3.25;;
60006;SDS011;45863;50.336;3.536;2022-07-29T03:21:57;7.07;;;2.97;;
60006;SDS011;45863;50.336;3.536;2022-07-29T03:26:51;10.68;;;3.63;;
60006;SDS011;45863;50.336;3.536;2022-07-29T03:29:16;13.40;;;3.90;;
60006;SDS011;45863;50.336;3.536;2022-07-29T03:31:41;9.13;;;4.20;;
60006;SDS011;45863;50.336;3.536;2022-07-29T03:34:06;7.50;;;3.30;;
60006;SDS011;45863;50.336;3.536;2022-07-29T03:36:31;9.17;;;3.73;;
60006;SDS011;45863;50.336;3.536;2022-07-29T03:38:57;11.87;;;3.73;;
60006;SDS011;45863;50.336;3.536;2022-07-29T03:41:22;7.35;;;3.58;;
60006;SDS011;45863;50.336;3.536;2022-07-29T03:43:47;8.13;;;3.25;;
60006;SDS011;45863;50.336;3.536;2022-07-29T03:46:14;8.18;;;3.50;;
60006;SDS011;45863;50.336;3.536;2022-07-29T03:48:42;9.68;;;3.75;;
60006;SDS011;45863;50.336;3.536;2022-07-29T03:51:11;9.23;;;3.50;;
60006;SDS011;45863;50.336;3.536;2022-07-29T03:53:37;8.68;;;4.07;;
60006;SDS011;45863;50.336;3.536;2022-07-29T03:56:02;7.40;;;3.45;;
60006;SDS011;45863;50.336;3.536;2022-07-29T03:58:28;8.93;;;3.55;;
60006;SDS011;45863;50.336;3.536;2022-07-29T04:00:55;10.73;;;3.55;;
60006;SDS011;45863;50.336;3.536;2022-07-29T04:03:20;9.27;;;3.75;;
60006;SDS011;45863;50.336;3.536;2022-07-29T04:05:57;10.18;;;3.88;;
60006;SDS011;45863;50.336;3.536;2022-07-29T04:08:22;8.75;;;3.50;;
60006;SDS011;45863;50.336;3.536;2022-07-29T04:10:47;6.03;;;3.37;;
60006;SDS011;45863;50.336;3.536;2022-07-29T04:13:13;13.17;;;4.13;;
60006;SDS011;45863;50.336;3.536;2022-07-29T04:15:38;5.80;;;3.33;;
60006;SDS011;45863;50.336;3.536;2022-07-29T04:18:03;8.88;;;3.33;;
60006;SDS011;45863;50.336;3.536;2022-07-29T04:20:29;9.48;;;4.13;;
60006;SDS011;45863;50.336;3.536;2022-07-29T04:22:54;10.32;;;3.80;;
60006;SDS011;45863;50.336;3.536;2022-07-29T04:25:19;7.45;;;3.42;;
60006;SDS011;45863;50.336;3.536;2022-07-29T04:27:44;8.82;;;3.83;;
60006;SDS011;45863;50.336;3.536;2022-07-29T04:30:25;7.47;;;3.40;;
60006;SDS011;45863;50.336;3.536;2022-07-29T04:32:50;9.48;;;3.35;;
60006;SDS011;45863;50.336;3.536;2022-07-29T04:35:15;10.93;;;3.63;;
60006;SDS011;45863;50.336;3.536;2022-07-29T04:37:40;10.40;;;4.00;;
60006;SDS011;45863;50.336;3.536;2022-07-29T04:40:05;13.17;;;3.90;;
60006;SDS011;45863;50.336;3.536;2022-07-29T04:42:31;10.20;;;3.95;;
60006;SDS011;45863;50.336;3.536;2022-07-29T04:44:56;7.47;;;3.67;;
60006;SDS011;45863;50.336;3.536;2022-07-29T04:47:21;7.70;;;4.07;;
60006;SDS011;45863;50.336;3.536;2022-07-29T04:49:46;10.75;;;4.03;;
60006;SDS011;45863;50.336;3.536;2022-07-29T04:52:12;9.10;;;4.27;;
60006;SDS011;45863;50.336;3.536;2022-07-29T04:54:37;8.93;;;4.07;;
60006;SDS011;45863;50.336;3.536;2022-07-29T04:57:02;12.73;;;3.80;;
60006;SDS011;45863;50.336;3.536;2022-07-29T04:59:27;10.00;;;3.55;;
60006;SDS011;45863;50.336;3.536;2022-07-29T05:01:52;9.98;;;3.83;;
60006;SDS011;45863;50.336;3.536;2022-07-29T05:04:18;11.35;;;3.63;;
60006;SDS011;45863;50.336;3.536;2022-07-29T05:06:43;10.53;;;4.77;;
60006;SDS011;45863;50.336;3.536;2022-07-29T05:09:08;10.98;;;3.72;;
60006;SDS011;45863;50.336;3.536;2022-07-29T05:11:33;10.33;;;4.20;;
60006;SDS011;45863;50.336;3.536;2022-07-29T05:13:58;9.20;;;3.77;;
60006;SDS011;45863;50.336;3.536;2022-07-29T05:16:24;13.27;;;3.93;;
60006;SDS011;45863;50.336;3.536;2022-07-29T05:18:49;8.97;;;4.10;;
60006;SDS011;45863;50.336;3.536;2022-07-29T05:21:14;9.90;;;3.93;;
60006;SDS011;45863;50.336;3.536;2022-07-29T05:23:39;11.98;;;3.72;;
60006;SDS011;45863;50.336;3.536;2022-07-29T05:26:04;7.53;;;3.60;;
60006;SDS011;45863;50.336;3.536;2022-07-29T05:28:32;9.87;;;3.47;;
60006;SDS011;45863;50.336;3.536;2022-07-29T05:30:58;12.68;;;3.78;;
60006;SDS011;45863;50.336;3.536;2022-07-29T05:33:23;10.57;;;3.90;;
60006;SDS011;45863;50.336;3.536;2022-07-29T05:35:48;8.80;;;4.07;;
60006;SDS011;45863;50.336;3.536;2022-07-29T05:38:13;11.03;;;3.87;;
60006;SDS011;45863;50.336;3.536;2022-07-29T05:40:38;11.13;;;4.17;;
60006;SDS011;45863;50.336;3.536;2022-07-29T05:43:04;13.17;;;4.53;;
60006;SDS011;45863;50.336;3.536;2022-07-29T05:45:29;10.70;;;4.30;;
60006;SDS011;45863;50.336;3.536;2022-07-29T05:47:54;9.70;;;4.27;;
60006;SDS011;45863;50.336;3.536;2022-07-29T05:50:19;13.45;;;4.47;;
60006;SDS011;45863;50.336;3.536;2022-07-29T05:52:44;9.10;;;4.50;;
60006;SDS011;45863;50.336;3.536;2022-07-29T05:55:10;14.87;;;5.13;;
60006;SDS011;45863;50.336;3.536;2022-07-29T05:57:36;10.85;;;4.60;;
60006;SDS011;45863;50.336;3.536;2022-07-29T06:00:01;14.27;;;4.30;;
60006;SDS011;45863;50.336;3.536;2022-07-29T06:02:26;10.10;;;4.20;;
60006;SDS011;45863;50.336;3.536;2022-07-29T06:04:52;8.60;;;4.00;;
60006;SDS011;45863;50.336;3.536;2022-07-29T06:07:17;11.73;;;4.47;;
60006;SDS011;45863;50.336;3.536;2022-07-29T06:09:42;14.50;;;4.47;;
60006;SDS011;45863;50.336;3.536;2022-07-29T06:12:07;12.17;;;4.43;;
60006;SDS011;45863;50.336;3.536;2022-07-29T06:14:33;11.52;;;4.38;;
60006;SDS011;45863;50.336;3.536;2022-07-29T06:16:58;8.77;;;4.40;;
60006;SDS011;45863;50.336;3.536;2022-07-29T06:19:23;12.30;;;4.23;;
60006;SDS011;45863;50.336;3.536;2022-07-29T06:21:48;15.03;;;5.13;;
60006;SDS011;45863;50.336;3.536;2022-07-29T06:24:14;10.07;;;4.95;;
60006;SDS011;45863;50.336;3.536;2022-07-29T06:26:40;15.38;;;3.85;;
60006;SDS011;45863;50.336;3.536;2022-07-29T06:29:05;10.50;;;3.75;;
60006;SDS011;45863;50.336;3.536;2022-07-29T06:31:31;8.70;;;4.20;;
60006;SDS011;45863;50.336;3.536;2022-07-29T06:33:56;14.13;;;3.83;;
60006;SDS011;45863;50.336;3.536;2022-07-29T06:36:21;12.20;;;4.37;;
60006;SDS011;45863;50.336;3.536;2022-07-29T06:38:46;12.37;;;4.30;;
60006;SDS011;45863;50.336;3.536;2022-07-29T06:41:11;9.73;;;4.07;;
60006;SDS011;45863;50.336;3.536;2022-07-29T06:43:41;13.07;;;4.40;;
60006;SDS011;45863;50.336;3.536;2022-07-29T06:46:08;11.45;;;3.83;;
60006;SDS011;45863;50.336;3.536;2022-07-29T06:48:34;12.35;;;4.35;;
60006;SDS011;45863;50.336;3.536;2022-07-29T06:50:59;13.05;;;4.82;;
60006;SDS011;45863;50.336;3.536;2022-07-29T06:53:25;13.25;;;4.50;;
60006;SDS011;45863;50.336;3.536;2022-07-29T06:55:50;8.82;;;4.13;;
60006;SDS011;45863;50.336;3.536;2022-07-29T06:58:15;11.23;;;4.90;;
60006;SDS011;45863;50.336;3.536;2022-07-29T07:00:43;7.88;;;3.78;;
60006;SDS011;45863;50.336;3.536;2022-07-29T07:03:08;15.35;;;4.25;;
60006;SDS011;45863;50.336;3.536;2022-07-29T07:05:33;13.10;;;4.13;;
60006;SDS011;45863;50.336;3.536;2022-07-29T07:07:58;15.30;;;4.27;;
60006;SDS011;45863;50.336;3.536;2022-07-29T07:10:23;11.87;;;4.60;;
60006;SDS011;45863;50.336;3.536;2022-07-29T07:12:49;8.32;;;4.15;;
60006;SDS011;45863;50.336;3.536;2022-07-29T07:15:14;14.77;;;4.38;;
60006;SDS011;45863;50.336;3.536;2022-07-29T07:17:39;15.25;;;4.30;;
60006;SDS011;45863;50.336;3.536;2022-07-29T07:20:05;14.55;;;4.10;;
60006;SDS011;45863;50.336;3.536;2022-07-29T07:22:30;12.10;;;3.85;;
60006;SDS011;45863;50.336;3.536;2022-07-29T07:24:56;10.90;;;4.20;;
60006;SDS011;45863;50.336;3.536;2022-07-29T07:27:21;15.50;;;4.57;;
60006;SDS011;45863;50.336;3.536;2022-07-29T07:29:46;10.30;;;4.13;;
60006;SDS011;45863;50.336;3.536;2022-07-29T07:32:11;13.67;;;4.33;;
60006;SDS011;45863;50.336;3.536;2022-07-29T07:34:38;14.15;;;3.88;;
60006;SDS011;45863;50.336;3.536;2022-07-29T07:37:03;10.05;;;4.07;;
60006;SDS011;45863;50.336;3.536;2022-07-29T07:39:28;11.17;;;4.13;;
60006;SDS011;45863;50.336;3.536;2022-07-29T07:41:53;12.23;;;3.77;;
60006;SDS011;45863;50.336;3.536;2022-07-29T07:44:19;10.93;;;4.75;;
60006;SDS011;45863;50.336;3.536;2022-07-29T07:46:44;12.07;;;4.80;;
60006;SDS011;45863;50.336;3.536;2022-07-29T07:49:10;14.60;;;4.55;;
60006;SDS011;45863;50.336;3.536;2022-07-29T07:51:35;11.13;;;4.60;;
60006;SDS011;45863;50.336;3.536;2022-07-29T07:54:00;14.83;;;4.57;;
60006;SDS011;45863;50.336;3.536;2022-07-29T07:56:25;15.57;;;4.00;;
60006;SDS011;45863;50.336;3.536;2022-07-29T07:58:51;11.30;;;4.03;;
60006;SDS011;45863;50.336;3.536;2022-07-29T08:01:16;11.27;;;4.43;;
60006;SDS011;45863;50.336;3.536;2022-07-29T08:03:43;12.82;;;4.30;;
60006;SDS011;45863;50.336;3.536;2022-07-29T08:06:09;15.33;;;4.53;;
60006;SDS011;45863;50.336;3.536;2022-07-29T08:08:34;13.67;;;4.50;;
60006;SDS011;45863;50.336;3.536;2022-07-29T08:10:59;16.38;;;4.30;;
60006;SDS011;45863;50.336;3.536;2022-07-29T08:13:26;18.20;;;4.85;;
60006;SDS011;45863;50.336;3.536;2022-07-29T08:15:55;15.10;;;4.60;;
60006;SDS011;45863;50.336;3.536;2022-07-29T08:18:25;13.15;;;3.95;;
60006;SDS011;45863;50.336;3.536;2022-07-29T08:20:50;15.20;;;3.50;;
60006;SDS011;45863;50.336;3.536;2022-07-29T08:23:15;13.03;;;3.03;;
60006;SDS011;45863;50.336;3.536;2022-07-29T08:25:41;11.10;;;4.07;;
60006;SDS011;45863;50.336;3.536;2022-07-29T08:28:06;13.23;;;3.35;;
60006;SDS011;45863;50.336;3.536;2022-07-29T08:30:32;12.90;;;3.40;;
60006;SDS011;45863;50.336;3.536;2022-07-29T08:32:57;10.80;;;3.37;;
60006;SDS011;45863;50.336;3.536;2022-07-29T08:35:23;13.68;;;3.63;;
60006;SDS011;45863;50.336;3.536;2022-07-29T08:37:49;11.60;;;3.95;;
60006;SDS011;45863;50.336;3.536;2022-07-29T08:40:14;12.95;;;3.67;;
60006;SDS011;45863;50.336;3.536;2022-07-29T08:42:40;16.38;;;3.35;;
60006;SDS011;45863;50.336;3.536;2022-07-29T08:45:05;11.60;;;3.35;;
60006;SDS011;45863;50.336;3.536;2022-07-29T08:47:31;9.73;;;2.90;;
60006;SDS011;45863;50.336;3.536;2022-07-29T08:49:56;13.38;;;3.00;;
60006;SDS011;45863;50.336;3.536;2022-07-29T08:52:21;13.60;;;3.17;;
60006;SDS011;45863;50.336;3.536;2022-07-29T08:54:49;9.35;;;3.30;;
60006;SDS011;45863;50.336;3.536;2022-07-29T08:57:17;8.90;;;2.97;;
60006;SDS011;45863;50.336;3.536;2022-07-29T08:59:42;9.75;;;2.78;;
60006;SDS011;45863;50.336;3.536;2022-07-29T09:02:10;10.48;;;2.92;;
60006;SDS011;45863;50.336;3.536;2022-07-29T09:04:37;9.50;;;3.08;;
60006;SDS011;45863;50.336;3.536;2022-07-29T09:07:03;9.35;;;2.78;;
60006;SDS011;45863;50.336;3.536;2022-07-29T09:09:30;6.40;;;2.08;;
60006;SDS011;45863;50.336;3.536;2022-07-29T09:11:55;9.60;;;2.20;;
60006;SDS011;45863;50.336;3.536;2022-07-29T09:14:21;7.82;;;2.17;;
60006;SDS011;45863;50.336;3.536;2022-07-29T09:19:21;10.43;;;2.70;;
60006;SDS011;45863;50.336;3.536;2022-07-29T09:21:46;9.82;;;2.20;;
60006;SDS011;45863;50.336;3.536;2022-07-29T09:24:35;7.72;;;1.90;;
60006;SDS011;45863;50.336;3.536;2022-07-29T09:27:02;10.35;;;2.03;;
60006;SDS011;45863;50.336;3.536;2022-07-29T09:29:27;11.27;;;2.40;;
60006;SDS011;45863;50.336;3.536;2022-07-29T09:31:54;9.50;;;2.45;;
60006;SDS011;45863;50.336;3.536;2022-07-29T09:36:48;9.13;;;2.30;;
60006;SDS011;45863;50.336;3.536;2022-07-29T09:39:14;7.30;;;2.38;;
60006;SDS011;45863;50.336;3.536;2022-07-29T09:41:49;8.52;;;2.50;;
60006;SDS011;45863;50.336;3.536;2022-07-29T09:44:14;11.88;;;2.20;;
60006;SDS011;45863;50.336;3.536;2022-07-29T09:46:40;13.75;;;3.15;;
60006;SDS011;45863;50.336;3.536;2022-07-29T09:49:16;10.75;;;2.25;;
60006;SDS011;45863;50.336;3.536;2022-07-29T09:51:42;7.32;;;2.50;;
60006;SDS011;45863;50.336;3.536;2022-07-29T09:54:26;7.73;;;2.33;;
60006;SDS011;45863;50.336;3.536;2022-07-29T09:56:52;7.30;;;2.60;;
60006;SDS011;45863;50.336;3.536;2022-07-29T09:59:17;7.53;;;2.42;;
60006;SDS011;45863;50.336;3.536;2022-07-29T10:01:42;7.82;;;2.30;;
60006;SDS011;45863;50.336;3.536;2022-07-29T10:04:08;9.57;;;2.45;;
60006;SDS011;45863;50.336;3.536;2022-07-29T10:06:33;7.93;;;2.65;;
60006;SDS011;45863;50.336;3.536;2022-07-29T10:09:08;7.70;;;2.40;;
60006;SDS011;45863;50.336;3.536;2022-07-29T10:11:34;10.60;;;2.70;;
60006;SDS011;45863;50.336;3.536;2022-07-29T10:14:01;11.32;;;2.47;;
60006;SDS011;45863;50.336;3.536;2022-07-29T10:16:26;6.18;;;2.30;;
60006;SDS011;45863;50.336;3.536;2022-07-29T10:18:57;9.40;;;2.40;;
60006;SDS011;45863;50.336;3.536;2022-07-29T10:21:23;11.00;;;2.75;;
60006;SDS011;45863;50.336;3.536;2022-07-29T10:23:48;8.80;;;2.85;;
60006;SDS011;45863;50.336;3.536;2022-07-29T10:26:14;7.07;;;2.80;;
60006;SDS011;45863;50.336;3.536;2022-07-29T10:28:39;10.93;;;3.00;;
60006;SDS011;45863;50.336;3.536;2022-07-29T10:31:05;10.40;;;2.93;;
60006;SDS011;45863;50.336;3.536;2022-07-29T10:36:15;9.82;;;2.50;;
60006;SDS011;45863;50.336;3.536;2022-07-29T10:44:02;9.77;;;2.50;;
60006;SDS011;45863;50.336;3.536;2022-07-29T10:46:28;11.32;;;3.05;;
60006;SDS011;45863;50.336;3.536;2022-07-29T10:54:15;8.55;;;2.88;;
60006;SDS011;45863;50.336;3.536;2022-07-29T10:56:40;12.77;;;2.88;;
60006;SDS011;45863;50.336;3.536;2022-07-29T11:01:44;10.25;;;2.58;;
60006;SDS011;45863;50.336;3.536;2022-07-29T11:04:10;10.52;;;2.45;;
60006;SDS011;45863;50.336;3.536;2022-07-29T11:09:19;9.68;;;2.47;;
60006;SDS011;45863;50.336;3.536;2022-07-29T11:11:44;13.98;;;2.78;;
60006;SDS011;45863;50.336;3.536;2022-07-29T11:14:10;9.15;;;2.33;;
60006;SDS011;45863;50.336;3.536;2022-07-29T11:16:57;10.80;;;2.87;;
60006;SDS011;45863;50.336;3.536;2022-07-29T11:19:23;7.90;;;2.78;;
60006;SDS011;45863;50.336;3.536;2022-07-29T11:21:48;12.70;;;3.42;;
60006;SDS011;45863;50.336;3.536;2022-07-29T11:24:24;16.25;;;5.00;;
60006;SDS011;45863;50.336;3.536;2022-07-29T11:29:38;15.05;;;4.60;;
60006;SDS011;45863;50.336;3.536;2022-07-29T11:32:08;8.35;;;3.85;;
60006;SDS011;45863;50.336;3.536;2022-07-29T11:39:32;8.65;;;3.72;;
60006;SDS011;45863;50.336;3.536;2022-07-29T11:47:19;7.70;;;2.53;;
60006;SDS011;45863;50.336;3.536;2022-07-29T11:49:45;10.82;;;2.83;;
60006;SDS011;45863;50.336;3.536;2022-07-29T11:52:10;9.27;;;2.60;;
60006;SDS011;45863;50.336;3.536;2022-07-29T11:54:37;9.13;;;3.05;;
60006;SDS011;45863;50.336;3.536;2022-07-29T11:57:06;9.52;;;2.40;;
60006;SDS011;45863;50.336;3.536;2022-07-29T11:59:31;7.82;;;2.20;;
60006;SDS011;45863;50.336;3.536;2022-07-29T12:02:03;11.05;;;3.00;;
60006;SDS011;45863;50.336;3.536;2022-07-29T12:04:28;5.60;;;2.23;;
60006;SDS011;45863;50.336;3.536;2022-07-29T12:06:54;8.70;;;2.37;;
60006;SDS011;45863;50.336;3.536;2022-07-29T12:09:20;10.75;;;3.15;;
60006;SDS011;45863;50.336;3.536;2022-07-29T12:11:45;6.35;;;2.63;;
60006;SDS011;45863;50.336;3.536;2022-07-29T12:14:24;7.85;;;2.60;;
60006;SDS011;45863;50.336;3.536;2022-07-29T12:16:49;9.80;;;2.22;;
60006;SDS011;45863;50.336;3.536;2022-07-29T12:19:14;6.77;;;1.73;;
60006;SDS011;45863;50.336;3.536;2022-07-29T12:21:46;6.30;;;1.83;;
60006;SDS011;45863;50.336;3.536;2022-07-29T12:24:11;4.65;;;1.75;;
60006;SDS011;45863;50.336;3.536;2022-07-29T12:26:36;8.73;;;2.30;;
60006;SDS011;45863;50.336;3.536;2022-07-29T12:29:16;6.20;;;1.90;;
60006;SDS011;45863;50.336;3.536;2022-07-29T12:31:42;7.20;;;2.10;;
60006;SDS011;45863;50.336;3.536;2022-07-29T12:34:08;10.27;;;2.38;;
60006;SDS011;45863;50.336;3.536;2022-07-29T12:36:33;9.10;;;2.15;;
60006;SDS011;45863;50.336;3.536;2022-07-29T12:38:58;5.10;;;1.70;;
60006;SDS011;45863;50.336;3.536;2022-07-29T12:41:23;6.17;;;2.10;;
60006;SDS011;45863;50.336;3.536;2022-07-29T12:43:54;6.27;;;1.80;;
60006;SDS011;45863;50.336;3.536;2022-07-29T12:46:20;8.50;;;2.85;;
60006;SDS011;45863;50.336;3.536;2022-07-29T12:48:49;5.63;;;2.60;;
60006;SDS011;45863;50.336;3.536;2022-07-29T12:51:14;4.97;;;2.05;;
60006;SDS011;45863;50.336;3.536;2022-07-29T12:53:41;5.78;;;2.40;;
60006;SDS011;45863;50.336;3.536;2022-07-29T12:56:26;8.38;;;2.30;;
60006;SDS011;45863;50.336;3.536;2022-07-29T12:58:51;6.80;;;2.33;;
60006;SDS011;45863;50.336;3.536;2022-07-29T13:01:17;7.53;;;2.33;;
60006;SDS011;45863;50.336;3.536;2022-07-29T13:03:51;5.38;;;2.30;;
60006;SDS011;45863;50.336;3.536;2022-07-29T13:06:30;6.60;;;2.13;;
60006;SDS011;45863;50.336;3.536;2022-07-29T13:08:59;7.13;;;1.83;;
60006;SDS011;45863;50.336;3.536;2022-07-29T13:11:28;5.45;;;1.98;;
60006;SDS011;45863;50.336;3.536;2022-07-29T13:13:53;6.10;;;2.22;;
60006;SDS011;45863;50.336;3.536;2022-07-29T13:16:18;6.97;;;2.03;;
60006;SDS011;45863;50.336;3.536;2022-07-29T13:18:43;6.55;;;1.98;;
60006;SDS011;45863;50.336;3.536;2022-07-29T13:21:13;9.00;;;2.00;;
60006;SDS011;45863;50.336;3.536;2022-07-29T13:23:38;4.88;;;1.98;;
60006;SDS011;45863;50.336;3.536;2022-07-29T13:26:06;5.17;;;1.77;;
60006;SDS011;45863;50.336;3.536;2022-07-29T13:28:32;8.23;;;2.15;;
60006;SDS011;45863;50.336;3.536;2022-07-29T13:30:57;5.93;;;2.00;;
60006;SDS011;45863;50.336;3.536;2022-07-29T13:33:23;8.80;;;2.00;;
60006;SDS011;45863;50.336;3.536;2022-07-29T13:35:48;5.40;;;1.70;;
60006;SDS011;45863;50.336;3.536;2022-07-29T13:38:14;6.30;;;2.03;;
60006;SDS011;45863;50.336;3.536;2022-07-29T13:40:39;6.17;;;1.80;;
60006;SDS011;45863;50.336;3.536;2022-07-29T13:43:05;6.45;;;2.25;;
60006;SDS011;45863;50.336;3.536;2022-07-29T13:45:33;6.80;;;1.73;;
60006;SDS011;45863;50.336;3.536;2022-07-29T13:47:58;6.43;;;2.10;;
60006;SDS011;45863;50.336;3.536;2022-07-29T13:50:23;8.97;;;4.70;;
60006;SDS011;45863;50.336;3.536;2022-07-29T13:52:49;6.73;;;2.20;;
60006;SDS011;45863;50.336;3.536;2022-07-29T13:55:15;4.97;;;1.67;;
60006;SDS011;45863;50.336;3.536;2022-07-29T13:57:40;5.60;;;1.93;;
60006;SDS011;45863;50.336;3.536;2022-07-29T14:00:06;4.97;;;2.10;;
60006;SDS011;45863;50.336;3.536;2022-07-29T14:02:31;9.10;;;2.22;;
60006;SDS011;45863;50.336;3.536;2022-07-29T14:04:57;8.13;;;2.42;;
60006;SDS011;45863;50.336;3.536;2022-07-29T14:07:23;7.90;;;2.00;;
60006;SDS011;45863;50.336;3.536;2022-07-29T14:09:48;8.83;;;2.10;;
60006;SDS011;45863;50.336;3.536;2022-07-29T14:12:13;5.57;;;2.37;;
60006;SDS011;45863;50.336;3.536;2022-07-29T14:14:38;7.90;;;1.73;;
60006;SDS011;45863;50.336;3.536;2022-07-29T14:17:04;6.20;;;1.97;;
60006;SDS011;45863;50.336;3.536;2022-07-29T14:19:31;10.90;;;2.45;;
60006;SDS011;45863;50.336;3.536;2022-07-29T14:22:00;5.47;;;2.30;;
60006;SDS011;45863;50.336;3.536;2022-07-29T14:24:25;5.60;;;1.80;;
60006;SDS011;45863;50.336;3.536;2022-07-29T14:26:50;6.17;;;2.27;;
60006;SDS011;45863;50.336;3.536;2022-07-29T14:29:15;8.53;;;2.10;;
60006;SDS011;45863;50.336;3.536;2022-07-29T14:31:40;8.67;;;2.43;;
60006;SDS011;45863;50.336;3.536;2022-07-29T14:34:07;9.00;;;2.67;;
60006;SDS011;45863;50.336;3.536;2022-07-29T14:36:33;12.20;;;2.50;;
60006;SDS011;45863;50.336;3.536;2022-07-29T14:38:58;9.37;;;2.50;;
60006;SDS011;45863;50.336;3.536;2022-07-29T14:41:23;9.65;;;3.00;;
60006;SDS011;45863;50.336;3.536;2022-07-29T14:43:48;5.87;;;2.20;;
60006;SDS011;45863;50.336;3.536;2022-07-29T14:46:13;10.80;;;2.57;;
60006;SDS011;45863;50.336;3.536;2022-07-29T14:48:39;8.10;;;2.13;;
60006;SDS011;45863;50.336;3.536;2022-07-29T14:51:04;7.57;;;2.03;;
60006;SDS011;45863;50.336;3.536;2022-07-29T14:53:30;7.22;;;2.47;;
60006;SDS011;45863;50.336;3.536;2022-07-29T14:55:55;15.03;;;3.00;;
60006;SDS011;45863;50.336;3.536;2022-07-29T14:58:20;9.15;;;2.22;;
60006;SDS011;45863;50.336;3.536;2022-07-29T15:00:47;10.52;;;2.75;;
60006;SDS011;45863;50.336;3.536;2022-07-29T15:03:12;6.82;;;2.45;;
60006;SDS011;45863;50.336;3.536;2022-07-29T15:05:38;6.82;;;2.55;;
60006;SDS011;45863;50.336;3.536;2022-07-29T15:08:03;12.93;;;2.65;;
60006;SDS011;45863;50.336;3.536;2022-07-29T15:10:29;11.15;;;2.42;;
60006;SDS011;45863;50.336;3.536;2022-07-29T15:12:54;10.90;;;2.13;;
60006;SDS011;45863;50.336;3.536;2022-07-29T15:15:20;7.20;;;2.40;;
60006;SDS011;45863;50.336;3.536;2022-07-29T15:17:46;9.43;;;2.40;;
60006;SDS011;45863;50.336;3.536;2022-07-29T15:20:11;7.85;;;2.20;;
60006;SDS011;45863;50.336;3.536;2022-07-29T15:22:37;8.03;;;2.83;;
60006;SDS011;45863;50.336;3.536;2022-07-29T15:25:03;6.72;;;2.30;;
60006;SDS011;45863;50.336;3.536;2022-07-29T15:27:28;8.18;;;2.25;;
60006;SDS011;45863;50.336;3.536;2022-07-29T15:29:53;10.17;;;2.20;;
60006;SDS011;45863;50.336;3.536;2022-07-29T15:32:18;7.37;;;2.20;;